CMB824 Details

Departure: RAF Ascension Island (FHAW)
Arrival: Grantley Adams International Airport (TBPB) at N/A
Route: EGUPA 0030W 0440N 0850N DOLRO UM791 BGI
Notes: USTRANSCOM CONTRACT FLIGHT | PAYLOAD RESTRICTED | ETOPS


Current Weather Information
No METAR available for FHAW.
TBPB 251000Z 10014KT 9999 VCSH SCT016 28/24 Q1014 NOSIG